createdAt,value
2022-11-26T00:02:35.181Z,5.07
2022-11-26T00:05:37.163Z,5.40
2022-11-26T00:08:39.005Z,4.45
2022-11-26T00:11:40.917Z,4.73
2022-11-26T00:14:42.772Z,5.27
2022-11-26T00:17:44.633Z,5.82
2022-11-26T00:20:54.459Z,4.92
2022-11-26T00:23:56.315Z,4.87
2022-11-26T00:26:59.107Z,4.88
2022-11-26T00:30:00.960Z,4.95
2022-11-26T00:33:02.831Z,4.80
2022-11-26T00:36:10.120Z,4.89
2022-11-26T00:39:19.730Z,4.72
2022-11-26T00:42:21.563Z,5.04
2022-11-26T00:45:24.894Z,5.21
2022-11-26T00:48:26.726Z,6.41
2022-11-26T00:51:28.536Z,6.18
2022-11-26T00:54:30.412Z,5.03
2022-11-26T00:57:32.280Z,4.94
2022-11-26T01:00:34.846Z,4.98
2022-11-26T01:03:36.647Z,5.20
2022-11-26T01:06:43.096Z,5.47
2022-11-26T01:09:44.943Z,6.22
2022-11-26T01:12:46.900Z,6.48
2022-11-26T01:15:48.803Z,5.84
2022-11-26T01:18:51.708Z,5.62
2022-11-26T01:21:53.560Z,5.29
2022-11-26T01:24:55.413Z,5.31
2022-11-26T01:27:57.262Z,5.33
2022-11-26T01:30:59.097Z,5.14
2022-11-26T01:34:00.999Z,5.27
2022-11-26T01:37:02.905Z,6.56
2022-11-26T01:40:06.652Z,5.59
2022-11-26T01:43:12.023Z,5.23
2022-11-26T01:46:15.385Z,5.19
2022-11-26T01:49:18.211Z,5.72
2022-11-26T01:52:24.198Z,6.27
2022-11-26T01:55:27.033Z,7.00
2022-11-26T01:58:40.077Z,5.61
2022-11-26T02:01:42.255Z,5.36
2022-11-26T02:04:47.436Z,6.22
2022-11-26T02:07:49.401Z,5.43
2022-11-26T02:10:51.898Z,5.00
2022-11-26T02:13:58.711Z,5.47
2022-11-26T02:17:00.460Z,5.05
2022-11-26T02:20:08.595Z,5.39
2022-11-26T02:23:25.243Z,5.33
2022-11-26T02:26:46.127Z,5.26
2022-11-26T02:30:00.954Z,5.64
2022-11-26T02:33:05.196Z,5.02
2022-11-26T02:36:12.956Z,4.44
2022-11-26T02:39:15.605Z,4.56
2022-11-26T02:42:25.144Z,4.51
2022-11-26T02:45:28.406Z,4.74
2022-11-26T02:48:31.457Z,4.91
2022-11-26T02:51:34.971Z,4.48
2022-11-26T02:54:37.506Z,4.86
2022-11-26T02:57:42.364Z,5.14
2022-11-26T03:00:44.197Z,5.51
2022-11-26T03:03:47.619Z,4.42
2022-11-26T03:06:49.420Z,4.90
2022-11-26T03:09:51.193Z,4.87
2022-11-26T03:12:53.041Z,5.22
2022-11-26T03:15:54.972Z,5.13
2022-11-26T03:18:56.813Z,5.86
2022-11-26T03:21:58.656Z,5.90
2022-11-26T03:25:00.464Z,5.50
2022-11-26T03:28:02.363Z,4.80
2022-11-26T03:31:04.202Z,4.46
2022-11-26T03:34:06.011Z,4.60
2022-11-26T03:37:07.852Z,4.68
2022-11-26T03:40:10.086Z,6.44
2022-11-26T03:43:11.944Z,6.10
2022-11-26T03:46:13.847Z,5.79
2022-11-26T03:49:15.723Z,5.66
2022-11-26T03:52:17.547Z,5.20
2022-11-26T03:55:19.487Z,4.76
2022-11-26T03:58:21.285Z,5.12
2022-11-26T04:01:23.218Z,5.19
2022-11-26T04:04:25.082Z,4.25
2022-11-26T04:07:26.945Z,5.24
2022-11-26T04:10:28.778Z,5.29
2022-11-26T04:13:30.571Z,5.81
2022-11-26T04:16:32.465Z,5.74
2022-11-26T04:19:34.373Z,4.04
2022-11-26T04:22:36.220Z,5.06
2022-11-26T04:25:38.254Z,4.67
2022-11-26T04:28:40.147Z,4.36
2022-11-26T04:31:42.014Z,4.44
2022-11-26T04:34:43.849Z,4.76
2022-11-26T04:37:45.757Z,4.66
2022-11-26T04:40:47.768Z,5.29
2022-11-26T04:43:49.588Z,4.16
2022-11-26T04:46:51.408Z,4.69
2022-11-26T04:49:53.264Z,5.27
2022-11-26T04:52:55.093Z,4.70
2022-11-26T04:55:56.937Z,5.79
2022-11-26T04:58:58.773Z,4.47
2022-11-26T05:02:00.660Z,4.66
2022-11-26T05:05:02.620Z,4.70
2022-11-26T05:08:04.492Z,4.45
2022-11-26T05:11:06.385Z,4.29
2022-11-26T05:14:08.222Z,4.71
2022-11-26T05:17:10.007Z,5.70
2022-11-26T05:20:12.021Z,5.88
2022-11-26T05:23:13.908Z,5.97
2022-11-26T05:26:15.749Z,5.77
2022-11-26T05:29:17.806Z,5.94
2022-11-26T05:32:19.635Z,6.04
2022-11-26T05:35:21.763Z,5.02
2022-11-26T05:38:23.853Z,5.64
2022-11-26T05:41:25.685Z,6.47
2022-11-26T05:44:27.522Z,4.82
2022-11-26T05:47:29.301Z,5.73
2022-11-26T05:50:32.180Z,4.96
2022-11-26T05:53:34.118Z,4.95
2022-11-26T05:56:35.967Z,4.58
2022-11-26T05:59:37.786Z,5.06
2022-11-26T06:02:39.730Z,6.18
2022-11-26T06:05:41.712Z,5.50
2022-11-26T06:08:43.517Z,4.88
2022-11-26T06:11:45.394Z,5.86
2022-11-26T06:14:47.341Z,6.35
2022-11-26T06:17:49.307Z,5.03
2022-11-26T06:20:51.110Z,5.12
2022-11-26T06:23:58.895Z,4.72
2022-11-26T06:27:01.291Z,4.70
2022-11-26T06:30:06.987Z,5.15
2022-11-26T06:33:08.769Z,5.09
2022-11-26T06:36:10.884Z,4.98
2022-11-26T06:39:12.739Z,4.90
2022-11-26T06:42:14.671Z,5.57
2022-11-26T06:45:16.746Z,4.77
2022-11-26T06:48:18.690Z,4.73
2022-11-26T06:51:27.797Z,5.14
2022-11-26T06:54:29.726Z,5.80
2022-11-26T06:57:31.575Z,5.41
2022-11-26T07:00:33.382Z,5.48
2022-11-26T07:03:35.216Z,6.10
2022-11-26T07:06:37.032Z,6.27
2022-11-26T07:09:39.435Z,6.08
2022-11-26T07:12:41.246Z,6.65
2022-11-26T07:15:43.153Z,5.91
2022-11-26T07:18:49.166Z,5.08
2022-11-26T07:21:50.979Z,5.04
2022-11-26T07:24:52.822Z,4.96
2022-11-26T07:27:54.755Z,6.32
2022-11-26T07:30:59.952Z,6.51
2022-11-26T07:34:01.857Z,5.80
2022-11-26T07:37:03.864Z,6.21
2022-11-26T07:40:06.079Z,6.47
2022-11-26T07:43:07.980Z,6.45
2022-11-26T07:46:10.671Z,6.58
2022-11-26T07:49:12.559Z,6.36
2022-11-26T07:52:14.377Z,6.40
2022-11-26T07:55:16.304Z,6.48
2022-11-26T07:58:18.228Z,6.88
2022-11-26T08:01:20.987Z,6.84
2022-11-26T08:04:22.925Z,7.25
2022-11-26T08:07:29.258Z,6.66
2022-11-26T08:10:31.493Z,7.38
2022-11-26T08:13:33.347Z,7.38
2022-11-26T08:16:35.646Z,7.69
2022-11-26T08:19:37.549Z,7.12
2022-11-26T08:22:39.393Z,6.70
2022-11-26T08:25:59.253Z,8.17
2022-11-26T08:29:03.421Z,8.17
2022-11-26T08:32:05.329Z,7.43
2022-11-26T08:35:07.309Z,8.19
2022-11-26T08:38:09.113Z,7.57
2022-11-26T08:41:11.947Z,7.65
2022-11-26T08:44:13.786Z,6.90
2022-11-26T08:47:15.673Z,7.70
2022-11-26T08:50:17.679Z,7.75
2022-11-26T08:53:19.620Z,7.29
2022-11-26T08:56:21.639Z,7.94
2022-11-26T08:59:24.293Z,7.21
2022-11-26T09:02:26.169Z,7.18
2022-11-26T09:05:28.037Z,7.15
2022-11-26T09:08:31.977Z,7.21
2022-11-26T09:11:35.515Z,7.07
2022-11-26T09:14:38.875Z,7.76
2022-11-26T09:17:41.022Z,6.86
2022-11-26T09:20:42.892Z,7.99
2022-11-26T09:23:44.740Z,8.32
2022-11-26T09:26:48.444Z,7.17
2022-11-26T09:29:50.384Z,7.35
2022-11-26T09:32:52.275Z,8.07
2022-11-26T09:35:54.205Z,7.61
2022-11-26T09:38:56.477Z,7.31
2022-11-26T09:42:08.546Z,7.42
2022-11-26T09:45:12.523Z,7.73
2022-11-26T09:48:15.489Z,8.01
2022-11-26T09:51:20.464Z,7.83
2022-11-26T09:54:23.045Z,8.62
2022-11-26T09:57:34.281Z,8.37
2022-11-26T10:00:49.519Z,8.11
2022-11-26T10:03:51.867Z,7.41
2022-11-26T10:07:12.623Z,8.44
2022-11-26T10:10:17.551Z,7.51
2022-11-26T10:13:20.973Z,8.31
2022-11-26T10:16:30.365Z,8.17
2022-11-26T10:19:44.270Z,9.10
2022-11-26T10:22:55.536Z,7.91
2022-11-26T10:26:05.285Z,7.96
2022-11-26T10:29:25.969Z,9.55
2022-11-26T10:32:30.956Z,9.55
2022-11-26T10:35:33.266Z,9.59
2022-11-26T10:38:35.205Z,8.79
2022-11-26T10:41:37.297Z,8.94
2022-11-26T10:44:40.701Z,9.92
2022-11-26T10:47:42.964Z,9.78
2022-11-26T10:51:00.473Z,10.68
2022-11-26T10:54:03.209Z,10.02
2022-11-26T10:57:06.594Z,10.29
2022-11-26T11:00:24.971Z,9.53
2022-11-26T11:03:59.766Z,9.58
2022-11-26T11:06:50.467Z,10.15
2022-11-26T11:09:53.940Z,9.53
2022-11-26T11:13:14.201Z,10.52
2022-11-26T11:16:25.367Z,10.01
2022-11-26T11:19:27.318Z,10.41
2022-11-26T11:22:29.121Z,10.91
2022-11-26T11:25:32.153Z,11.16
2022-11-26T11:28:34.424Z,8.58
2022-11-26T11:31:45.063Z,8.55
2022-11-26T11:34:47.448Z,9.12
2022-11-26T11:37:50.148Z,8.78
2022-11-26T11:40:52.198Z,9.19
2022-11-26T11:44:00.087Z,9.75
2022-11-26T11:47:05.279Z,11.13
2022-11-26T11:50:22.566Z,10.72
2022-11-26T11:53:44.731Z,10.76
2022-11-26T11:56:50.032Z,10.33
2022-11-26T12:00:15.962Z,10.93
2022-11-26T12:03:36.158Z,10.62
2022-11-26T12:06:40.130Z,9.99
2022-11-26T12:09:47.629Z,10.25
2022-11-26T12:12:50.812Z,10.58
2022-11-26T12:15:54.063Z,10.49
2022-11-26T12:19:14.666Z,11.19
2022-11-26T12:22:24.404Z,12.07
2022-11-26T12:25:36.464Z,10.97
2022-11-26T12:28:40.667Z,11.32
2022-11-26T12:31:44.319Z,12.01
2022-11-26T12:34:47.779Z,11.74
2022-11-26T12:37:50.275Z,10.73
2022-11-26T12:41:00.241Z,10.26
2022-11-26T12:44:06.185Z,10.35
2022-11-26T12:47:26.857Z,10.02
2022-11-26T12:50:35.396Z,9.93
2022-11-26T12:53:40.448Z,10.27
2022-11-26T12:56:49.849Z,10.61
2022-11-26T12:59:52.687Z,10.32
2022-11-26T13:02:54.644Z,10.03
2022-11-26T13:06:05.668Z,10.67
2022-11-26T13:09:29.155Z,11.60
2022-11-26T13:12:31.056Z,10.57
2022-11-26T13:15:37.870Z,10.41
2022-11-26T13:18:47.317Z,11.10
2022-11-26T13:21:55.334Z,10.89
2022-11-26T13:25:03.428Z,10.89
2022-11-26T13:28:24.729Z,11.24
2022-11-26T13:31:29.830Z,11.34
2022-11-26T13:34:43.712Z,11.45
2022-11-26T13:37:45.581Z,10.15
2022-11-26T13:40:55.942Z,10.90
2022-11-26T13:44:16.111Z,10.05
2022-11-26T13:47:20.122Z,11.30
2022-11-26T13:50:23.824Z,11.82
2022-11-26T13:53:31.659Z,11.54
2022-11-26T13:56:33.527Z,11.80
2022-11-26T13:59:36.818Z,9.95
2022-11-26T14:02:42.613Z,9.73
2022-11-26T14:05:50.770Z,10.48
2022-11-26T14:08:53.029Z,10.03
2022-11-26T14:11:56.793Z,10.66
2022-11-26T14:14:58.640Z,9.56
2022-11-26T14:18:00.459Z,10.14
2022-11-26T14:21:02.417Z,10.63
2022-11-26T14:24:04.280Z,9.92
2022-11-26T14:27:06.225Z,10.93
2022-11-26T14:30:08.111Z,9.60
2022-11-26T14:33:12.127Z,9.92
2022-11-26T14:36:23.061Z,9.37
2022-11-26T14:39:25.201Z,10.47
2022-11-26T14:42:27.347Z,10.21
2022-11-26T14:45:29.234Z,10.43
2022-11-26T14:48:31.153Z,10.36
2022-11-26T14:51:33.241Z,10.80
2022-11-26T14:54:35.560Z,9.35
2022-11-26T14:57:44.755Z,10.34
2022-11-26T15:01:00.647Z,9.67
2022-11-26T15:04:04.224Z,9.70
2022-11-26T15:07:07.324Z,10.30
2022-11-26T15:10:11.935Z,9.61
2022-11-26T15:13:14.633Z,10.50
2022-11-26T15:16:43.001Z,10.10
2022-11-26T15:19:44.929Z,9.53
2022-11-26T15:22:53.150Z,9.51
2022-11-26T15:25:55.007Z,10.02
2022-11-26T15:28:56.854Z,9.26
2022-11-26T15:31:58.774Z,9.38
2022-11-26T15:35:01.016Z,8.86
2022-11-26T15:38:06.472Z,9.93
2022-11-26T15:41:08.708Z,10.20
2022-11-26T15:44:19.644Z,10.49
2022-11-26T15:47:22.428Z,8.84
2022-11-26T15:50:24.288Z,9.75
2022-11-26T15:53:27.199Z,9.68
2022-11-26T15:56:30.953Z,9.40
2022-11-26T15:59:40.635Z,9.42
2022-11-26T16:02:43.194Z,9.38
2022-11-26T16:05:53.170Z,9.36
2022-11-26T16:08:59.656Z,8.62
2022-11-26T16:12:01.713Z,8.98
2022-11-26T16:15:22.329Z,8.97
2022-11-26T16:18:26.072Z,8.89
2022-11-26T16:21:28.498Z,9.00
2022-11-26T16:24:33.624Z,7.95
2022-11-26T16:27:35.438Z,9.00
2022-11-26T16:30:38.005Z,9.10
2022-11-26T16:33:40.215Z,9.27
2022-11-26T16:36:42.593Z,9.07
2022-11-26T16:39:44.512Z,8.93
2022-11-26T16:42:46.742Z,8.96
2022-11-26T16:45:48.785Z,8.97
2022-11-26T16:48:50.898Z,8.86
2022-11-26T16:51:52.838Z,9.19
2022-11-26T16:54:54.754Z,9.27
2022-11-26T16:57:57.620Z,8.97
2022-11-26T17:00:59.713Z,8.52
2022-11-26T17:04:01.580Z,8.59
2022-11-26T17:07:03.398Z,8.53
2022-11-26T17:10:05.597Z,8.85
2022-11-26T17:13:07.625Z,8.08
2022-11-26T17:16:16.121Z,8.54
2022-11-26T17:19:18.031Z,8.54
2022-11-26T17:22:20.379Z,8.96
2022-11-26T17:25:22.197Z,9.17
2022-11-26T17:28:24.143Z,9.55
2022-11-26T17:31:26.220Z,9.34
2022-11-26T17:34:28.178Z,9.15
2022-11-26T17:37:30.210Z,8.37
2022-11-26T17:40:32.590Z,8.01
2022-11-26T17:43:34.441Z,8.15
2022-11-26T17:46:54.450Z,8.14
2022-11-26T17:49:58.084Z,8.13
2022-11-26T17:52:59.922Z,8.17
2022-11-26T17:56:01.872Z,8.53
2022-11-26T17:59:03.784Z,8.98
2022-11-26T18:02:05.733Z,9.12
2022-11-26T18:05:07.924Z,9.13
2022-11-26T18:08:09.803Z,9.13
2022-11-26T18:11:12.516Z,9.08
2022-11-26T18:14:14.406Z,8.84
2022-11-26T18:17:16.243Z,8.60
2022-11-26T18:20:19.545Z,9.01
2022-11-26T18:23:21.351Z,9.20
2022-11-26T18:26:23.132Z,8.41
2022-11-26T18:29:25.618Z,9.01
2022-11-26T18:32:27.457Z,9.05
2022-11-26T18:35:29.294Z,9.19
2022-11-26T18:38:33.145Z,9.45
2022-11-26T18:41:35.050Z,8.83
2022-11-26T18:44:37.052Z,8.89
2022-11-26T18:47:39.011Z,8.64
2022-11-26T18:50:41.261Z,8.76
2022-11-26T18:53:43.530Z,9.49
2022-11-26T18:56:45.386Z,9.65
2022-11-26T18:59:47.474Z,9.30
2022-11-26T19:02:49.646Z,9.46
2022-11-26T19:05:53.369Z,9.94
2022-11-26T19:08:59.709Z,9.87
2022-11-26T19:12:01.677Z,9.49
2022-11-26T19:15:03.847Z,9.42
2022-11-26T19:18:05.788Z,9.27
2022-11-26T19:21:07.989Z,9.67
2022-11-26T19:24:10.394Z,9.79
2022-11-26T19:27:12.965Z,9.87
2022-11-26T19:30:15.196Z,9.64
2022-11-26T19:33:17.068Z,9.45
2022-11-26T19:36:18.904Z,9.57
2022-11-26T19:39:20.705Z,9.36
2022-11-26T19:42:22.548Z,9.48
2022-11-26T19:45:24.393Z,9.35
2022-11-26T19:48:27.510Z,8.43
2022-11-26T19:51:29.336Z,8.58
2022-11-26T19:54:31.195Z,9.21
2022-11-26T19:57:33.019Z,9.43
2022-11-26T20:00:34.826Z,9.54
2022-11-26T20:03:37.780Z,9.33
2022-11-26T20:06:39.941Z,9.56
2022-11-26T20:09:41.965Z,9.17
2022-11-26T20:12:43.827Z,9.03
2022-11-26T20:15:47.481Z,9.50
2022-11-26T20:18:49.689Z,9.68
2022-11-26T20:21:51.540Z,9.14
2022-11-26T20:24:53.435Z,8.70
2022-11-26T20:27:57.452Z,8.93
2022-11-26T20:30:59.393Z,9.64
2022-11-26T20:34:02.280Z,9.16
2022-11-26T20:37:04.238Z,9.28
2022-11-26T20:40:06.467Z,8.60
2022-11-26T20:43:08.683Z,9.06
2022-11-26T20:46:11.579Z,9.46
2022-11-26T20:49:15.887Z,9.48
2022-11-26T20:52:19.576Z,9.53
2022-11-26T20:55:22.074Z,9.59
2022-11-26T20:58:24.414Z,9.28
2022-11-26T21:01:27.377Z,8.68
2022-11-26T21:04:29.265Z,8.49
2022-11-26T21:07:31.221Z,9.44
2022-11-26T21:10:33.392Z,9.56
2022-11-26T21:13:36.731Z,9.51
2022-11-26T21:16:38.818Z,9.52
2022-11-26T21:19:41.028Z,9.64
2022-11-26T21:22:43.432Z,9.91
2022-11-26T21:25:45.351Z,9.62
2022-11-26T21:28:51.342Z,9.47
2022-11-26T21:31:53.338Z,8.95
2022-11-26T21:34:55.258Z,9.54
2022-11-26T21:37:58.047Z,9.13
2022-11-26T21:41:26.301Z,9.58
2022-11-26T21:44:28.246Z,9.40
2022-11-26T21:47:30.046Z,9.17
2022-11-26T21:50:31.988Z,9.32
2022-11-26T21:53:34.032Z,8.92
2022-11-26T21:56:35.899Z,8.85
2022-11-26T21:59:38.063Z,8.84
2022-11-26T22:02:42.796Z,9.49
2022-11-26T22:05:44.660Z,9.68
2022-11-26T22:08:47.544Z,9.54
2022-11-26T22:11:49.771Z,9.48
2022-11-26T22:14:51.573Z,8.90
2022-11-26T22:17:53.481Z,9.22
2022-11-26T22:20:55.319Z,9.07
2022-11-26T22:23:57.427Z,9.11
2022-11-26T22:26:59.467Z,8.63
2022-11-26T22:30:01.799Z,8.80
2022-11-26T22:33:05.424Z,8.84
2022-11-26T22:36:07.446Z,8.92
2022-11-26T22:39:16.344Z,9.16
2022-11-26T22:42:18.211Z,8.80
2022-11-26T22:45:20.104Z,9.14
2022-11-26T22:48:21.977Z,8.65
2022-11-26T22:51:24.224Z,9.49
2022-11-26T22:54:26.014Z,9.51
2022-11-26T22:57:27.869Z,7.92
2022-11-26T23:00:49.869Z,9.27
2022-11-26T23:03:52.053Z,9.42
2022-11-26T23:06:54.029Z,9.38
2022-11-26T23:09:55.819Z,9.01
2022-11-26T23:12:57.672Z,8.93
2022-11-26T23:15:59.654Z,9.16
2022-11-26T23:19:01.884Z,9.23
2022-11-26T23:22:03.696Z,9.21
2022-11-26T23:25:05.829Z,9.01
2022-11-26T23:28:08.161Z,8.97
2022-11-26T23:31:14.922Z,8.82
2022-11-26T23:34:16.929Z,8.95
2022-11-26T23:37:18.880Z,8.10
2022-11-26T23:40:20.698Z,8.67
2022-11-26T23:43:22.744Z,8.06
2022-11-26T23:46:28.623Z,8.40
2022-11-26T23:49:30.568Z,7.95
2022-11-26T23:52:32.416Z,7.99
2022-11-26T23:55:34.306Z,9.04
2022-11-26T23:58:36.177Z,9.01
